createdAt,value
2023-03-23T15:58:12.647Z,13.88
2023-03-23T16:00:42.276Z,14.18
2023-03-23T16:03:20.858Z,14.19
2023-03-23T16:05:47.495Z,14.20
2023-03-23T16:08:14.660Z,14.20
2023-03-23T16:10:42.818Z,14.25
2023-03-23T16:13:09.937Z,14.30
2023-03-23T16:15:36.480Z,14.28
2023-03-23T16:18:03.115Z,14.30
2023-03-23T16:20:32.988Z,14.30
2023-03-23T16:23:00.337Z,14.29
2023-03-23T16:25:27.036Z,14.23
2023-03-23T16:27:54.469Z,14.23
2023-03-23T16:30:27.794Z,14.18
2023-03-23T16:32:57.085Z,14.24
2023-03-23T16:35:25.002Z,14.24
2023-03-23T16:38:07.526Z,14.15
2023-03-23T16:40:38.553Z,14.18
2023-03-23T16:43:08.982Z,14.07
2023-03-23T16:45:38.914Z,14.07
2023-03-23T16:48:07.859Z,14.07
2023-03-23T16:50:36.199Z,14.04
2023-03-23T16:53:04.492Z,14.02
2023-03-23T16:55:31.795Z,13.94
2023-03-23T16:58:09.364Z,13.91
2023-03-23T17:00:44.620Z,13.83
2023-03-23T17:03:11.386Z,13.81
2023-03-23T17:05:38.355Z,13.75
2023-03-23T17:08:05.961Z,13.80
2023-03-23T17:10:33.259Z,13.70
2023-03-23T17:12:59.790Z,13.60
2023-03-23T17:15:26.599Z,13.46
2023-03-23T17:17:54.917Z,13.39
2023-03-23T17:20:22.357Z,13.32
2023-03-23T17:22:48.982Z,13.24
2023-03-23T17:25:15.630Z,13.14
2023-03-23T17:27:42.718Z,13.09
2023-03-23T17:30:11.069Z,13.01
2023-03-23T17:32:38.379Z,12.96
2023-03-23T17:35:06.468Z,12.91
2023-03-23T17:37:33.512Z,12.99
2023-03-23T17:40:00.296Z,12.90
2023-03-23T17:42:27.101Z,12.74
2023-03-23T17:44:53.790Z,12.62
2023-03-23T17:47:20.451Z,12.60
2023-03-23T17:49:47.760Z,12.46
2023-03-23T17:52:14.343Z,12.33
2023-03-23T17:54:40.870Z,12.30
2023-03-23T17:57:07.536Z,12.34
2023-03-23T17:59:34.117Z,12.30
2023-03-23T18:02:00.611Z,12.14
2023-03-23T18:04:27.312Z,12.18
2023-03-23T18:06:58.203Z,12.16
2023-03-23T18:09:25.789Z,12.18
2023-03-23T18:11:53.192Z,12.05
2023-03-23T18:14:20.862Z,11.93
2023-03-23T18:16:48.204Z,11.88
2023-03-23T18:19:15.308Z,11.88
2023-03-23T18:21:45.301Z,11.72
2023-03-23T18:24:13.001Z,11.68
2023-03-23T18:26:40.050Z,11.51
2023-03-23T18:29:06.501Z,11.42
2023-03-23T18:31:34.081Z,11.22
2023-03-23T18:34:00.657Z,11.25
2023-03-23T18:36:28.280Z,11.24
2023-03-23T18:38:57.345Z,11.20
2023-03-23T18:41:25.380Z,11.24
2023-03-23T18:43:52.365Z,11.28
2023-03-23T18:46:18.991Z,11.36
2023-03-23T18:48:45.587Z,11.33
2023-03-23T18:51:12.866Z,11.22
2023-03-23T18:53:40.530Z,11.21
2023-03-23T18:56:12.510Z,11.19
2023-03-23T18:58:39.564Z,11.26
2023-03-23T19:01:11.608Z,11.24
2023-03-23T19:03:39.466Z,11.27
2023-03-23T19:06:14.197Z,11.20
2023-03-23T19:08:40.838Z,11.14
2023-03-23T19:11:11.840Z,11.21
2023-03-23T19:13:40.307Z,11.31
2023-03-23T19:16:11.497Z,11.31
2023-03-23T19:18:38.031Z,11.40
2023-03-23T19:23:34.464Z,11.34
2023-03-23T19:26:01.052Z,11.43
2023-03-23T19:30:58.760Z,11.52
2023-03-23T19:33:25.769Z,11.50
2023-03-23T19:36:05.740Z,11.52
2023-03-23T19:38:35.733Z,11.47
2023-03-23T19:41:04.039Z,11.41
2023-03-23T19:43:32.060Z,11.35
2023-03-23T19:45:58.893Z,11.20
2023-03-23T19:48:25.496Z,11.20
2023-03-23T19:50:53.030Z,11.12
2023-03-23T19:53:20.546Z,11.02
2023-03-23T19:55:47.995Z,10.98
2023-03-23T19:58:15.700Z,11.05
2023-03-23T20:00:44.258Z,11.12
2023-03-23T20:03:11.348Z,11.09
2023-03-23T20:05:38.172Z,11.14
2023-03-23T20:08:05.217Z,11.05
2023-03-23T20:10:34.563Z,11.12
2023-03-23T20:13:02.779Z,11.10
2023-03-23T20:15:33.669Z,11.05
2023-03-23T20:18:00.959Z,11.14
2023-03-23T20:20:28.681Z,11.16
2023-03-23T20:22:57.921Z,11.23
2023-03-23T20:25:26.103Z,11.08
2023-03-23T20:27:52.755Z,11.04
2023-03-23T20:30:20.148Z,11.00
2023-03-23T20:32:47.210Z,11.03
2023-03-23T20:35:14.630Z,11.00
2023-03-23T20:37:42.048Z,10.97
2023-03-23T20:40:14.525Z,10.95
2023-03-23T20:42:43.676Z,11.06
2023-03-23T20:45:13.010Z,10.98
2023-03-23T20:47:40.816Z,11.03
2023-03-23T20:50:09.409Z,11.07
2023-03-23T20:52:36.908Z,11.09
2023-03-23T20:55:04.465Z,11.20
2023-03-23T20:57:31.104Z,11.21
2023-03-23T20:59:58.005Z,11.24
2023-03-23T21:02:29.881Z,11.34
2023-03-23T21:04:58.137Z,11.38
2023-03-23T21:07:27.404Z,11.34
2023-03-23T21:09:53.953Z,11.33
2023-03-23T21:12:20.522Z,11.42
2023-03-23T21:14:47.557Z,11.49
2023-03-23T21:17:14.126Z,11.51
2023-03-23T21:19:41.602Z,11.58
2023-03-23T21:22:09.642Z,11.67
2023-03-23T21:24:37.592Z,11.70
2023-03-23T21:27:05.238Z,11.76
2023-03-23T21:29:32.550Z,11.74
2023-03-23T21:34:28.598Z,11.70
2023-03-23T21:36:55.460Z,11.72
2023-03-23T21:39:22.545Z,11.75
2023-03-23T21:41:49.663Z,11.77
2023-03-23T21:44:18.058Z,11.72
2023-03-23T21:46:44.913Z,11.73
2023-03-23T21:49:14.222Z,11.80
2023-03-23T21:51:42.772Z,11.84
2023-03-23T21:54:11.511Z,11.86
2023-03-23T21:56:38.475Z,11.84
2023-03-23T21:59:07.381Z,11.85
2023-03-23T22:01:36.633Z,11.88
2023-03-23T22:04:04.251Z,11.86
2023-03-23T22:06:31.432Z,11.81
2023-03-23T22:08:58.510Z,11.85
2023-03-23T22:11:29.107Z,11.88
2023-03-23T22:13:59.487Z,11.94
2023-03-23T22:16:26.708Z,11.93
2023-03-23T22:18:55.455Z,11.97
2023-03-23T22:21:25.928Z,11.93
2023-03-23T22:23:56.696Z,11.99
2023-03-23T22:26:24.981Z,11.82
2023-03-23T22:28:51.935Z,11.83
2023-03-23T22:31:23.503Z,11.90
2023-03-23T22:33:56.286Z,11.89
2023-03-23T22:36:28.468Z,11.77
2023-03-23T22:38:56.244Z,11.80
2023-03-23T22:41:30.578Z,11.85
2023-03-23T22:43:57.223Z,11.92
2023-03-23T22:46:25.463Z,11.97
2023-03-23T22:48:52.941Z,11.99
2023-03-23T22:51:21.440Z,11.94
2023-03-23T22:53:48.487Z,12.01
2023-03-23T22:56:16.503Z,12.03
2023-03-23T22:58:43.859Z,11.91
2023-03-23T23:01:18.305Z,11.81
2023-03-23T23:03:46.129Z,11.82
2023-03-23T23:06:15.618Z,11.81
2023-03-23T23:08:42.906Z,11.84
2023-03-23T23:11:14.223Z,11.86
2023-03-23T23:13:41.660Z,11.80
2023-03-23T23:16:11.269Z,11.68
2023-03-23T23:18:40.120Z,11.72
2023-03-23T23:21:12.211Z,11.69
2023-03-23T23:23:38.994Z,11.70
2023-03-23T23:26:07.114Z,11.68
2023-03-23T23:28:33.834Z,11.64
2023-03-23T23:31:00.951Z,11.66
2023-03-23T23:33:28.051Z,11.67
2023-03-23T23:35:56.245Z,11.69
2023-03-23T23:38:22.908Z,11.66
2023-03-23T23:40:49.907Z,11.76
2023-03-23T23:43:17.076Z,11.82
2023-03-23T23:45:44.186Z,11.76
2023-03-23T23:48:11.139Z,11.78
2023-03-23T23:50:37.797Z,11.77
2023-03-23T23:53:04.935Z,11.82
2023-03-23T23:55:32.323Z,11.84
2023-03-23T23:57:58.866Z,11.87
